sensor_id;sensor_type;location;lat;lon;timestamp;pressure;altitude;pressure_sealevel;temperature;humidity
77147;BME280;66121;52.584;9.694;2024-02-28T00:00:33;101461.59;;;3.00;100.00
77147;BME280;66121;52.584;9.694;2024-02-28T00:02:59;101450.84;;;2.95;100.00
77147;BME280;66121;52.584;9.694;2024-02-28T00:05:24;101469.31;;;2.98;100.00
77147;BME280;66121;52.584;9.694;2024-02-28T00:07:49;101462.16;;;2.80;100.00
77147;BME280;66121;52.584;9.694;2024-02-28T00:10:15;101470.19;;;2.85;100.00
77147;BME280;66121;52.584;9.694;2024-02-28T00:12:40;101456.81;;;2.75;100.00
77147;BME280;66121;52.584;9.694;2024-02-28T00:15:06;101466.38;;;2.64;100.00
77147;BME280;66121;52.584;9.694;2024-02-28T00:17:38;101471.16;;;2.58;100.00
77147;BME280;66121;52.584;9.694;2024-02-28T00:20:04;101473.81;;;2.50;100.00
77147;BME280;66121;52.584;9.694;2024-02-28T00:22:30;101471.56;;;2.30;100.00
77147;BME280;66121;52.584;9.694;2024-02-28T00:24:55;101480.06;;;2.28;100.00
77147;BME280;66121;52.584;9.694;2024-02-28T00:27:20;101483.00;;;2.18;100.00
77147;BME280;66121;52.584;9.694;2024-02-28T00:29:46;101482.53;;;2.16;100.00
77147;BME280;66121;52.584;9.694;2024-02-28T00:32:11;101501.84;;;2.28;100.00
77147;BME280;66121;52.584;9.694;2024-02-28T00:34:37;101496.44;;;2.37;100.00
77147;BME280;66121;52.584;9.694;2024-02-28T00:37:02;101490.75;;;2.25;100.00
77147;BME280;66121;52.584;9.694;2024-02-28T00:39:27;101491.75;;;2.29;100.00
77147;BME280;66121;52.584;9.694;2024-02-28T00:41:53;101505.25;;;2.34;100.00
77147;BME280;66121;52.584;9.694;2024-02-28T00:44:18;101490.25;;;2.23;100.00
77147;BME280;66121;52.584;9.694;2024-02-28T00:46:43;101504.31;;;2.38;100.00
77147;BME280;66121;52.584;9.694;2024-02-28T00:49:09;101505.13;;;2.39;100.00
77147;BME280;66121;52.584;9.694;2024-02-28T00:51:34;101506.44;;;2.41;100.00
77147;BME280;66121;52.584;9.694;2024-02-28T00:54:01;101507.97;;;2.34;100.00
77147;BME280;66121;52.584;9.694;2024-02-28T00:56:26;101505.88;;;2.31;100.00
77147;BME280;66121;52.584;9.694;2024-02-28T00:58:52;101510.69;;;2.34;100.00
77147;BME280;66121;52.584;9.694;2024-02-28T01:01:18;101511.19;;;2.36;100.00
77147;BME280;66121;52.584;9.694;2024-02-28T01:03:44;101513.44;;;2.34;100.00
77147;BME280;66121;52.584;9.694;2024-02-28T01:06:09;101511.81;;;2.33;100.00
77147;BME280;66121;52.584;9.694;2024-02-28T01:08:34;101513.09;;;2.35;100.00
77147;BME280;66121;52.584;9.694;2024-02-28T01:10:59;101500.09;;;2.32;100.00
77147;BME280;66121;52.584;9.694;2024-02-28T01:13:25;101487.13;;;2.29;100.00
77147;BME280;66121;52.584;9.694;2024-02-28T01:15:50;101489.75;;;2.21;100.00
77147;BME280;66121;52.584;9.694;2024-02-28T01:18:15;101505.00;;;2.22;100.00
77147;BME280;66121;52.584;9.694;2024-02-28T01:20:41;101497.31;;;2.24;100.00
77147;BME280;66121;52.584;9.694;2024-02-28T01:23:06;101488.94;;;2.20;100.00
77147;BME280;66121;52.584;9.694;2024-02-28T01:25:31;101512.84;;;2.23;100.00
77147;BME280;66121;52.584;9.694;2024-02-28T01:27:57;101514.59;;;2.19;100.00
77147;BME280;66121;52.584;9.694;2024-02-28T01:30:25;101513.28;;;2.17;100.00
77147;BME280;66121;52.584;9.694;2024-02-28T01:32:51;101515.31;;;2.11;100.00
77147;BME280;66121;52.584;9.694;2024-02-28T01:35:16;101506.56;;;2.01;100.00
77147;BME280;66121;52.584;9.694;2024-02-28T01:37:42;101524.59;;;1.97;100.00
77147;BME280;66121;52.584;9.694;2024-02-28T01:40:07;101529.13;;;1.87;100.00
77147;BME280;66121;52.584;9.694;2024-02-28T01:42:33;101526.69;;;2.00;100.00
77147;BME280;66121;52.584;9.694;2024-02-28T01:44:58;101512.09;;;1.95;100.00
77147;BME280;66121;52.584;9.694;2024-02-28T01:47:24;101503.66;;;1.83;100.00
77147;BME280;66121;52.584;9.694;2024-02-28T01:49:49;101503.16;;;1.68;100.00
77147;BME280;66121;52.584;9.694;2024-02-28T01:52:16;101506.91;;;1.58;100.00
77147;BME280;66121;52.584;9.694;2024-02-28T01:54:42;101525.53;;;1.65;100.00
77147;BME280;66121;52.584;9.694;2024-02-28T01:57:08;101511.44;;;1.63;100.00
77147;BME280;66121;52.584;9.694;2024-02-28T01:59:34;101508.91;;;1.53;100.00
77147;BME280;66121;52.584;9.694;2024-02-28T02:01:59;101518.78;;;1.62;100.00
77147;BME280;66121;52.584;9.694;2024-02-28T02:04:25;101502.75;;;1.47;100.00
77147;BME280;66121;52.584;9.694;2024-02-28T02:06:50;101512.25;;;1.63;100.00
77147;BME280;66121;52.584;9.694;2024-02-28T02:09:19;101503.09;;;1.59;100.00
77147;BME280;66121;52.584;9.694;2024-02-28T02:11:44;101497.81;;;1.63;100.00
77147;BME280;66121;52.584;9.694;2024-02-28T02:14:10;101495.22;;;1.58;100.00
77147;BME280;66121;52.584;9.694;2024-02-28T02:16:35;101489.97;;;1.48;100.00
77147;BME280;66121;52.584;9.694;2024-02-28T02:19:01;101497.13;;;1.57;100.00
77147;BME280;66121;52.584;9.694;2024-02-28T02:21:30;101491.69;;;1.44;100.00
77147;BME280;66121;52.584;9.694;2024-02-28T02:23:55;101493.50;;;1.48;100.00
77147;BME280;66121;52.584;9.694;2024-02-28T02:26:21;101489.78;;;1.30;100.00
77147;BME280;66121;52.584;9.694;2024-02-28T02:28:46;101496.75;;;1.37;100.00
77147;BME280;66121;52.584;9.694;2024-02-28T02:31:12;101500.66;;;1.30;100.00
77147;BME280;66121;52.584;9.694;2024-02-28T02:33:38;101487.84;;;1.17;100.00
77147;BME280;66121;52.584;9.694;2024-02-28T02:36:04;101486.63;;;0.96;100.00
77147;BME280;66121;52.584;9.694;2024-02-28T02:38:29;101498.00;;;0.98;100.00
77147;BME280;66121;52.584;9.694;2024-02-28T02:40:54;101484.00;;;0.91;100.00
77147;BME280;66121;52.584;9.694;2024-02-28T02:43:20;101485.09;;;0.90;100.00
77147;BME280;66121;52.584;9.694;2024-02-28T02:45:45;101481.69;;;0.85;100.00
77147;BME280;66121;52.584;9.694;2024-02-28T02:48:10;101486.59;;;0.83;100.00
77147;BME280;66121;52.584;9.694;2024-02-28T02:50:36;101491.59;;;0.76;100.00
77147;BME280;66121;52.584;9.694;2024-02-28T02:53:09;101489.94;;;0.61;100.00
77147;BME280;66121;52.584;9.694;2024-02-28T02:55:34;101500.09;;;0.55;100.00
77147;BME280;66121;52.584;9.694;2024-02-28T02:57:59;101507.41;;;0.55;100.00
77147;BME280;66121;52.584;9.694;2024-02-28T03:00:25;101509.94;;;0.51;100.00
77147;BME280;66121;52.584;9.694;2024-02-28T03:02:51;101516.75;;;0.49;100.00
77147;BME280;66121;52.584;9.694;2024-02-28T03:05:16;101505.75;;;0.40;100.00
77147;BME280;66121;52.584;9.694;2024-02-28T03:07:41;101500.72;;;0.34;100.00
77147;BME280;66121;52.584;9.694;2024-02-28T03:10:07;101505.13;;;0.30;100.00
77147;BME280;66121;52.584;9.694;2024-02-28T03:12:32;101520.09;;;0.27;100.00
77147;BME280;66121;52.584;9.694;2024-02-28T03:14:57;101513.19;;;0.16;100.00
77147;BME280;66121;52.584;9.694;2024-02-28T03:17:23;101505.94;;;0.12;100.00
77147;BME280;66121;52.584;9.694;2024-02-28T03:19:48;101507.00;;;0.11;100.00
77147;BME280;66121;52.584;9.694;2024-02-28T03:22:14;101511.63;;;0.10;100.00
77147;BME280;66121;52.584;9.694;2024-02-28T03:24:39;101518.88;;;-0.04;100.00
77147;BME280;66121;52.584;9.694;2024-02-28T03:27:05;101513.31;;;-0.13;100.00
77147;BME280;66121;52.584;9.694;2024-02-28T03:29:30;101530.63;;;-0.09;100.00
77147;BME280;66121;52.584;9.694;2024-02-28T03:31:57;101516.94;;;-0.22;100.00
77147;BME280;66121;52.584;9.694;2024-02-28T03:34:23;101532.13;;;-0.21;100.00
77147;BME280;66121;52.584;9.694;2024-02-28T03:36:48;101528.03;;;-0.19;100.00
77147;BME280;66121;52.584;9.694;2024-02-28T03:39:13;101531.91;;;-0.25;100.00
77147;BME280;66121;52.584;9.694;2024-02-28T03:41:39;101529.13;;;-0.20;100.00
77147;BME280;66121;52.584;9.694;2024-02-28T03:44:05;101532.78;;;-0.29;100.00
77147;BME280;66121;52.584;9.694;2024-02-28T03:46:30;101545.81;;;-0.31;100.00
77147;BME280;66121;52.584;9.694;2024-02-28T03:48:55;101524.00;;;-0.45;100.00
77147;BME280;66121;52.584;9.694;2024-02-28T03:51:21;101543.16;;;-0.36;100.00
77147;BME280;66121;52.584;9.694;2024-02-28T03:53:46;101542.09;;;-0.35;100.00
77147;BME280;66121;52.584;9.694;2024-02-28T03:56:11;101535.09;;;-0.65;100.00
77147;BME280;66121;52.584;9.694;2024-02-28T03:58:37;101529.59;;;-0.84;100.00
77147;BME280;66121;52.584;9.694;2024-02-28T04:01:02;101515.94;;;-0.97;100.00
77147;BME280;66121;52.584;9.694;2024-02-28T04:03:28;101543.84;;;-0.73;100.00
77147;BME280;66121;52.584;9.694;2024-02-28T04:05:54;101551.16;;;-0.74;100.00
77147;BME280;66121;52.584;9.694;2024-02-28T04:08:19;101548.41;;;-0.69;100.00
77147;BME280;66121;52.584;9.694;2024-02-28T04:10:44;101549.44;;;-0.65;100.00
77147;BME280;66121;52.584;9.694;2024-02-28T04:13:10;101547.44;;;-0.78;100.00
77147;BME280;66121;52.584;9.694;2024-02-28T04:15:35;101545.50;;;-0.77;100.00
77147;BME280;66121;52.584;9.694;2024-02-28T04:18:00;101553.81;;;-0.69;100.00
77147;BME280;66121;52.584;9.694;2024-02-28T04:20:26;101549.75;;;-0.66;100.00
77147;BME280;66121;52.584;9.694;2024-02-28T04:22:51;101548.16;;;-0.72;100.00
77147;BME280;66121;52.584;9.694;2024-02-28T04:25:17;101538.66;;;-0.70;100.00
77147;BME280;66121;52.584;9.694;2024-02-28T04:27:42;101552.41;;;-0.61;100.00
77147;BME280;66121;52.584;9.694;2024-02-28T04:30:08;101562.41;;;-0.61;100.00
77147;BME280;66121;52.584;9.694;2024-02-28T04:32:34;101569.22;;;-0.64;100.00
77147;BME280;66121;52.584;9.694;2024-02-28T04:35:00;101559.19;;;-0.63;100.00
77147;BME280;66121;52.584;9.694;2024-02-28T04:37:26;101565.38;;;-0.58;100.00
77147;BME280;66121;52.584;9.694;2024-02-28T04:39:51;101561.56;;;-0.57;100.00
77147;BME280;66121;52.584;9.694;2024-02-28T04:42:16;101560.31;;;-0.70;100.00
77147;BME280;66121;52.584;9.694;2024-02-28T04:44:42;101565.59;;;-0.54;100.00
77147;BME280;66121;52.584;9.694;2024-02-28T04:47:07;101560.81;;;-0.62;100.00
77147;BME280;66121;52.584;9.694;2024-02-28T04:49:32;101583.19;;;-0.52;100.00
77147;BME280;66121;52.584;9.694;2024-02-28T04:51:58;101579.34;;;-0.46;100.00
77147;BME280;66121;52.584;9.694;2024-02-28T04:54:23;101593.34;;;-0.39;100.00
77147;BME280;66121;52.584;9.694;2024-02-28T04:56:49;101584.69;;;-0.41;100.00
77147;BME280;66121;52.584;9.694;2024-02-28T04:59:16;101584.50;;;-0.49;100.00
77147;BME280;66121;52.584;9.694;2024-02-28T05:01:41;101588.56;;;-0.47;100.00
77147;BME280;66121;52.584;9.694;2024-02-28T05:04:09;101594.13;;;-0.33;100.00
77147;BME280;66121;52.584;9.694;2024-02-28T05:06:35;101577.72;;;-0.47;100.00
77147;BME280;66121;52.584;9.694;2024-02-28T05:09:00;101599.53;;;-0.33;100.00
77147;BME280;66121;52.584;9.694;2024-02-28T05:11:27;101598.38;;;-0.27;100.00
77147;BME280;66121;52.584;9.694;2024-02-28T05:13:52;101596.97;;;-0.25;100.00
77147;BME280;66121;52.584;9.694;2024-02-28T05:16:17;101602.84;;;-0.13;100.00
77147;BME280;66121;52.584;9.694;2024-02-28T05:18:46;101600.00;;;-0.03;100.00
77147;BME280;66121;52.584;9.694;2024-02-28T05:21:12;101588.34;;;-0.03;100.00
77147;BME280;66121;52.584;9.694;2024-02-28T05:23:37;101588.47;;;0.06;100.00
77147;BME280;66121;52.584;9.694;2024-02-28T05:26:03;101585.31;;;-0.02;100.00
77147;BME280;66121;52.584;9.694;2024-02-28T05:28:35;101615.56;;;0.11;100.00
77147;BME280;66121;52.584;9.694;2024-02-28T05:31:22;101617.88;;;0.22;100.00
77147;BME280;66121;52.584;9.694;2024-02-28T05:33:50;101607.50;;;0.24;100.00
77147;BME280;66121;52.584;9.694;2024-02-28T05:36:15;101611.56;;;0.27;100.00
77147;BME280;66121;52.584;9.694;2024-02-28T05:38:41;101627.91;;;0.40;100.00
77147;BME280;66121;52.584;9.694;2024-02-28T05:41:07;101616.78;;;0.42;100.00
77147;BME280;66121;52.584;9.694;2024-02-28T05:43:32;101621.63;;;0.45;100.00
77147;BME280;66121;52.584;9.694;2024-02-28T05:45:58;101618.09;;;0.44;100.00
77147;BME280;66121;52.584;9.694;2024-02-28T05:48:23;101620.22;;;0.47;100.00
77147;BME280;66121;52.584;9.694;2024-02-28T05:50:48;101616.63;;;0.52;100.00
77147;BME280;66121;52.584;9.694;2024-02-28T05:53:13;101613.47;;;0.45;100.00
77147;BME280;66121;52.584;9.694;2024-02-28T05:55:39;101610.41;;;0.51;100.00
77147;BME280;66121;52.584;9.694;2024-02-28T05:58:04;101622.28;;;0.55;100.00
77147;BME280;66121;52.584;9.694;2024-02-28T06:00:29;101626.31;;;0.58;100.00
77147;BME280;66121;52.584;9.694;2024-02-28T06:02:55;101603.25;;;0.55;100.00
77147;BME280;66121;52.584;9.694;2024-02-28T06:05:20;101609.59;;;0.70;100.00
77147;BME280;66121;52.584;9.694;2024-02-28T06:07:45;101619.66;;;0.69;100.00
77147;BME280;66121;52.584;9.694;2024-02-28T06:10:11;101617.88;;;0.78;100.00
77147;BME280;66121;52.584;9.694;2024-02-28T06:12:36;101614.88;;;0.80;100.00
77147;BME280;66121;52.584;9.694;2024-02-28T06:15:03;101602.34;;;0.97;100.00
77147;BME280;66121;52.584;9.694;2024-02-28T06:17:29;101612.03;;;1.03;100.00
77147;BME280;66121;52.584;9.694;2024-02-28T06:19:54;101609.75;;;1.10;100.00
77147;BME280;66121;52.584;9.694;2024-02-28T06:22:20;101611.78;;;1.18;100.00
77147;BME280;66121;52.584;9.694;2024-02-28T06:24:46;101614.72;;;1.22;100.00
77147;BME280;66121;52.584;9.694;2024-02-28T06:27:11;101603.63;;;1.18;100.00
77147;BME280;66121;52.584;9.694;2024-02-28T06:29:39;101612.94;;;1.31;100.00
77147;BME280;66121;52.584;9.694;2024-02-28T06:32:04;101612.25;;;1.39;100.00
77147;BME280;66121;52.584;9.694;2024-02-28T06:34:30;101621.63;;;1.47;100.00
77147;BME280;66121;52.584;9.694;2024-02-28T06:36:56;101611.75;;;1.37;100.00
77147;BME280;66121;52.584;9.694;2024-02-28T06:39:21;101622.00;;;1.40;100.00
77147;BME280;66121;52.584;9.694;2024-02-28T06:41:46;101622.22;;;1.57;100.00
77147;BME280;66121;52.584;9.694;2024-02-28T06:44:12;101633.31;;;1.61;100.00
77147;BME280;66121;52.584;9.694;2024-02-28T06:46:37;101627.78;;;1.66;100.00
77147;BME280;66121;52.584;9.694;2024-02-28T06:49:02;101622.34;;;1.66;100.00
77147;BME280;66121;52.584;9.694;2024-02-28T06:51:28;101628.19;;;1.73;100.00
77147;BME280;66121;52.584;9.694;2024-02-28T06:53:53;101623.56;;;1.73;100.00
77147;BME280;66121;52.584;9.694;2024-02-28T06:56:18;101617.03;;;1.74;100.00
77147;BME280;66121;52.584;9.694;2024-02-28T06:58:44;101620.03;;;1.73;100.00
77147;BME280;66121;52.584;9.694;2024-02-28T07:01:09;101621.44;;;1.70;100.00
77147;BME280;66121;52.584;9.694;2024-02-28T07:03:34;101625.09;;;1.79;100.00
77147;BME280;66121;52.584;9.694;2024-02-28T07:06:00;101627.91;;;1.74;100.00
77147;BME280;66121;52.584;9.694;2024-02-28T07:08:25;101626.69;;;1.80;100.00
77147;BME280;66121;52.584;9.694;2024-02-28T07:10:50;101623.78;;;1.90;100.00
77147;BME280;66121;52.584;9.694;2024-02-28T07:13:19;101620.88;;;1.87;100.00
77147;BME280;66121;52.584;9.694;2024-02-28T07:15:45;101619.97;;;1.91;100.00
77147;BME280;66121;52.584;9.694;2024-02-28T07:18:10;101622.06;;;1.94;100.00
77147;BME280;66121;52.584;9.694;2024-02-28T07:20:35;101614.09;;;1.98;100.00
77147;BME280;66121;52.584;9.694;2024-02-28T07:23:01;101612.47;;;1.97;100.00
77147;BME280;66121;52.584;9.694;2024-02-28T07:25:26;101623.47;;;2.06;100.00
77147;BME280;66121;52.584;9.694;2024-02-28T07:27:51;101613.31;;;2.11;100.00
77147;BME280;66121;52.584;9.694;2024-02-28T07:30:17;101607.25;;;2.14;100.00
77147;BME280;66121;52.584;9.694;2024-02-28T07:32:42;101619.13;;;2.18;100.00
77147;BME280;66121;52.584;9.694;2024-02-28T07:35:08;101607.44;;;2.18;100.00
77147;BME280;66121;52.584;9.694;2024-02-28T07:37:33;101610.53;;;2.25;100.00
77147;BME280;66121;52.584;9.694;2024-02-28T07:39:58;101599.38;;;2.13;100.00
77147;BME280;66121;52.584;9.694;2024-02-28T07:42:25;101610.06;;;2.23;100.00
77147;BME280;66121;52.584;9.694;2024-02-28T07:44:50;101607.53;;;2.13;100.00
77147;BME280;66121;52.584;9.694;2024-02-28T07:47:19;101613.69;;;2.18;100.00
77147;BME280;66121;52.584;9.694;2024-02-28T07:49:44;101600.28;;;2.08;100.00
77147;BME280;66121;52.584;9.694;2024-02-28T07:52:13;101608.03;;;2.15;100.00
77147;BME280;66121;52.584;9.694;2024-02-28T07:54:41;101607.81;;;2.25;100.00
77147;BME280;66121;52.584;9.694;2024-02-28T07:57:07;101623.44;;;2.33;100.00
77147;BME280;66121;52.584;9.694;2024-02-28T07:59:39;101623.66;;;2.36;100.00
77147;BME280;66121;52.584;9.694;2024-02-28T08:02:04;101627.38;;;2.40;100.00
77147;BME280;66121;52.584;9.694;2024-02-28T08:04:30;101623.72;;;2.45;100.00
77147;BME280;66121;52.584;9.694;2024-02-28T08:06:56;101623.34;;;2.38;100.00
77147;BME280;66121;52.584;9.694;2024-02-28T08:09:21;101626.84;;;2.52;100.00
77147;BME280;66121;52.584;9.694;2024-02-28T08:11:47;101616.06;;;2.47;100.00
77147;BME280;66121;52.584;9.694;2024-02-28T08:14:13;101611.31;;;2.52;100.00
77147;BME280;66121;52.584;9.694;2024-02-28T08:16:38;101617.00;;;2.65;100.00
77147;BME280;66121;52.584;9.694;2024-02-28T08:19:03;101613.44;;;2.78;100.00
77147;BME280;66121;52.584;9.694;2024-02-28T08:21:29;101606.22;;;2.95;100.00
77147;BME280;66121;52.584;9.694;2024-02-28T08:23:54;101610.06;;;3.16;100.00
77147;BME280;66121;52.584;9.694;2024-02-28T08:26:19;101604.50;;;3.21;100.00
77147;BME280;66121;52.584;9.694;2024-02-28T08:28:45;101596.03;;;3.09;100.00
77147;BME280;66121;52.584;9.694;2024-02-28T08:31:10;101592.34;;;2.83;100.00
77147;BME280;66121;52.584;9.694;2024-02-28T08:33:36;101582.00;;;2.72;100.00
77147;BME280;66121;52.584;9.694;2024-02-28T08:36:01;101588.13;;;2.77;100.00
77147;BME280;66121;52.584;9.694;2024-02-28T08:38:27;101587.47;;;2.94;100.00
77147;BME280;66121;52.584;9.694;2024-02-28T08:40:52;101582.00;;;3.16;100.00
77147;BME280;66121;52.584;9.694;2024-02-28T08:43:18;101580.19;;;3.42;100.00
77147;BME280;66121;52.584;9.694;2024-02-28T08:45:43;101563.63;;;3.61;100.00
77147;BME280;66121;52.584;9.694;2024-02-28T08:48:09;101563.88;;;3.90;100.00
77147;BME280;66121;52.584;9.694;2024-02-28T08:50:34;101558.31;;;4.29;100.00
77147;BME280;66121;52.584;9.694;2024-02-28T08:53:00;101539.72;;;4.48;100.00
77147;BME280;66121;52.584;9.694;2024-02-28T08:55:26;101521.22;;;4.28;100.00
77147;BME280;66121;52.584;9.694;2024-02-28T08:57:51;101502.56;;;4.13;100.00
77147;BME280;66121;52.584;9.694;2024-02-28T09:00:17;101513.50;;;4.30;100.00
77147;BME280;66121;52.584;9.694;2024-02-28T09:02:43;101507.06;;;4.26;100.00
77147;BME280;66121;52.584;9.694;2024-02-28T09:05:08;101503.03;;;4.49;100.00
77147;BME280;66121;52.584;9.694;2024-02-28T09:07:34;101493.72;;;4.50;100.00
77147;BME280;66121;52.584;9.694;2024-02-28T09:10:03;101507.31;;;5.48;100.00
77147;BME280;66121;52.584;9.694;2024-02-28T09:12:28;101460.88;;;5.60;99.12
77147;BME280;66121;52.584;9.694;2024-02-28T09:14:54;101433.53;;;5.81;97.41
77147;BME280;66121;52.584;9.694;2024-02-28T09:17:22;101406.25;;;5.93;95.53
77147;BME280;66121;52.584;9.694;2024-02-28T09:19:48;101386.34;;;6.05;93.60
77147;BME280;66121;52.584;9.694;2024-02-28T09:22:13;101377.09;;;6.75;92.45
77147;BME280;66121;52.584;9.694;2024-02-28T09:24:40;101337.88;;;6.74;90.21
77147;BME280;66121;52.584;9.694;2024-02-28T09:27:06;101320.06;;;6.80;88.48
77147;BME280;66121;52.584;9.694;2024-02-28T09:29:31;101321.25;;;6.46;88.16
77147;BME280;66121;52.584;9.694;2024-02-28T09:31:57;101341.34;;;6.95;88.36
77147;BME280;66121;52.584;9.694;2024-02-28T09:34:22;101335.34;;;7.42;87.56
77147;BME280;66121;52.584;9.694;2024-02-28T09:36:47;101292.25;;;7.18;86.12
77147;BME280;66121;52.584;9.694;2024-02-28T09:39:13;101300.06;;;7.56;85.65
77147;BME280;66121;52.584;9.694;2024-02-28T09:41:41;101281.47;;;8.20;84.28
77147;BME280;66121;52.584;9.694;2024-02-28T09:44:07;101236.72;;;8.35;82.76
77147;BME280;66121;52.584;9.694;2024-02-28T09:46:33;101228.41;;;8.32;80.77
77147;BME280;66121;52.584;9.694;2024-02-28T09:49:05;101237.97;;;8.38;79.93
77147;BME280;66121;52.584;9.694;2024-02-28T09:51:33;101218.09;;;8.29;79.14
77147;BME280;66121;52.584;9.694;2024-02-28T09:54:00;101245.94;;;8.59;79.60
77147;BME280;66121;52.584;9.694;2024-02-28T09:56:25;101274.09;;;9.18;79.33
77147;BME280;66121;52.584;9.694;2024-02-28T09:58:51;101249.31;;;9.18;78.17
77147;BME280;66121;52.584;9.694;2024-02-28T10:01:18;101239.19;;;9.41;77.67
77147;BME280;66121;52.584;9.694;2024-02-28T10:03:47;101251.66;;;9.54;76.36
77147;BME280;66121;52.584;9.694;2024-02-28T10:06:14;101253.69;;;9.38;76.50
77147;BME280;66121;52.584;9.694;2024-02-28T10:08:41;101241.69;;;9.12;75.93
77147;BME280;66121;52.584;9.694;2024-02-28T10:11:06;101273.78;;;9.58;75.46
77147;BME280;66121;52.584;9.694;2024-02-28T10:13:31;101304.59;;;9.10;76.25
77147;BME280;66121;52.584;9.694;2024-02-28T10:15:57;101278.00;;;9.17;75.65
77147;BME280;66121;52.584;9.694;2024-02-28T10:18:22;101272.88;;;9.00;75.72
77147;BME280;66121;52.584;9.694;2024-02-28T10:20:48;101290.59;;;9.91;75.37
77147;BME280;66121;52.584;9.694;2024-02-28T10:23:14;101280.28;;;9.88;74.24
77147;BME280;66121;52.584;9.694;2024-02-28T10:25:47;101299.75;;;9.76;75.23
77147;BME280;66121;52.584;9.694;2024-02-28T10:28:13;101280.06;;;10.16;73.91
77147;BME280;66121;52.584;9.694;2024-02-28T10:30:43;101219.13;;;10.02;72.77
77147;BME280;66121;52.584;9.694;2024-02-28T10:33:15;101262.25;;;9.71;73.74
77147;BME280;66121;52.584;9.694;2024-02-28T10:35:41;101311.03;;;9.52;74.62
77147;BME280;66121;52.584;9.694;2024-02-28T10:38:13;101310.00;;;9.41;74.76
77147;BME280;66121;52.584;9.694;2024-02-28T10:40:42;101288.34;;;8.73;74.37
77147;BME280;66121;52.584;9.694;2024-02-28T10:43:08;101376.19;;;9.44;76.39
77147;BME280;66121;52.584;9.694;2024-02-28T10:45:36;101355.44;;;9.85;75.80
77147;BME280;66121;52.584;9.694;2024-02-28T10:48:03;101293.22;;;9.84;73.96
77147;BME280;66121;52.584;9.694;2024-02-28T10:50:28;101302.78;;;10.09;74.18
77147;BME280;66121;52.584;9.694;2024-02-28T10:52:54;101276.69;;;8.17;74.28
77147;BME280;66121;52.584;9.694;2024-02-28T10:55:22;101365.44;;;8.18;76.59
77147;BME280;66121;52.584;9.694;2024-02-28T10:57:56;101395.44;;;8.35;77.29
77147;BME280;66121;52.584;9.694;2024-02-28T11:00:23;101357.16;;;8.02;76.38
77147;BME280;66121;52.584;9.694;2024-02-28T11:02:49;101435.66;;;7.63;78.25
77147;BME280;66121;52.584;9.694;2024-02-28T11:05:14;101442.31;;;8.26;78.47
77147;BME280;66121;52.584;9.694;2024-02-28T11:07:43;101406.44;;;8.51;77.92
77147;BME280;66121;52.584;9.694;2024-02-28T11:10:09;101395.22;;;8.16;77.23
77147;BME280;66121;52.584;9.694;2024-02-28T11:12:35;101418.03;;;7.16;78.54
77147;BME280;66121;52.584;9.694;2024-02-28T11:15:03;101493.22;;;7.72;80.57
77147;BME280;66121;52.584;9.694;2024-02-28T11:17:32;101479.81;;;7.83;80.43
77147;BME280;66121;52.584;9.694;2024-02-28T11:19:57;101475.34;;;7.78;80.42
77147;BME280;66121;52.584;9.694;2024-02-28T11:22:22;101510.50;;;7.72;81.54
77147;BME280;66121;52.584;9.694;2024-02-28T11:24:48;101520.91;;;6.65;82.14
77147;BME280;66121;52.584;9.694;2024-02-28T11:27:15;101576.03;;;7.38;83.30
77147;BME280;66121;52.584;9.694;2024-02-28T11:29:41;101559.16;;;8.32;81.93
77147;BME280;66121;52.584;9.694;2024-02-28T11:32:06;101518.03;;;8.91;81.06
77147;BME280;66121;52.584;9.694;2024-02-28T11:34:34;101427.13;;;8.45;78.07
77147;BME280;66121;52.584;9.694;2024-02-28T11:36:59;101450.81;;;6.88;79.05
77147;BME280;66121;52.584;9.694;2024-02-28T11:39:25;101529.94;;;6.98;81.69
77147;BME280;66121;52.584;9.694;2024-02-28T11:41:51;101575.03;;;7.54;83.33
77147;BME280;66121;52.584;9.694;2024-02-28T11:44:18;101544.75;;;7.18;82.65
77147;BME280;66121;52.584;9.694;2024-02-28T11:46:48;101550.75;;;7.32;82.62
77147;BME280;66121;52.584;9.694;2024-02-28T11:49:14;101567.94;;;7.53;82.87
77147;BME280;66121;52.584;9.694;2024-02-28T11:51:40;101601.72;;;7.21;83.83
77147;BME280;66121;52.584;9.694;2024-02-28T11:54:07;101595.31;;;7.62;84.80
77147;BME280;66121;52.584;9.694;2024-02-28T11:56:32;101544.03;;;8.14;82.18
77147;BME280;66121;52.584;9.694;2024-02-28T11:58:58;101534.03;;;8.22;82.08
77147;BME280;66121;52.584;9.694;2024-02-28T12:01:36;101513.00;;;8.02;81.00
77147;BME280;66121;52.584;9.694;2024-02-28T12:04:05;101513.69;;;7.87;80.69
77147;BME280;66121;52.584;9.694;2024-02-28T12:06:33;101521.78;;;8.31;80.77
77147;BME280;66121;52.584;9.694;2024-02-28T12:08:59;101470.91;;;8.37;80.03
77147;BME280;66121;52.584;9.694;2024-02-28T12:11:25;101489.78;;;7.87;80.33
77147;BME280;66121;52.584;9.694;2024-02-28T12:13:54;101505.00;;;7.97;80.32
77147;BME280;66121;52.584;9.694;2024-02-28T12:16:22;101509.31;;;8.34;80.59
77147;BME280;66121;52.584;9.694;2024-02-28T12:18:48;101496.59;;;8.05;80.45
77147;BME280;66121;52.584;9.694;2024-02-28T12:21:13;101514.69;;;8.18;80.56
77147;BME280;66121;52.584;9.694;2024-02-28T12:23:38;101513.09;;;8.17;81.39
77147;BME280;66121;52.584;9.694;2024-02-28T12:26:04;101494.53;;;8.26;80.80
77147;BME280;66121;52.584;9.694;2024-02-28T12:28:29;101477.06;;;7.95;80.33
77147;BME280;66121;52.584;9.694;2024-02-28T12:30:56;101475.69;;;7.76;80.65
77147;BME280;66121;52.584;9.694;2024-02-28T12:33:21;101522.34;;;8.25;81.11
77147;BME280;66121;52.584;9.694;2024-02-28T12:35:47;101504.53;;;8.07;80.69
77147;BME280;66121;52.584;9.694;2024-02-28T12:38:13;101515.38;;;8.15;81.51
77147;BME280;66121;52.584;9.694;2024-02-28T12:40:39;101491.16;;;7.81;81.07
77147;BME280;66121;52.584;9.694;2024-02-28T12:43:05;101483.00;;;7.97;81.14